Terminal Aerodrome Forecast
Issued by NWS Nashville, TN

Home | Current Version | Previous Version | Text Only | Print | Product List | Glossary On
Versions: 1 2 3 4 5 6 7 8 9 10 11 12 13 14 15 16 17 18 19 20 21 22 23 24 25 26
368
FTUS44 KOHX 250131 AAD
TAFCSV
TAF AMD
KCSV 250131Z 2502/2524 19008G14KT 6SM -SHRA SCT018 SCT030 OVC070
     FM250900 23012G22KT 3SM TSRA OVC012CB
     FM251500 28007KT P6SM VCSH BKN025
     FM251800 28007KT P6SM SCT040=

USA.gov is the U.S. government's official web portal to all federal, state and local government web resources and services.